createdAt,value
2022-12-01T00:00:33.453Z,20.4
2022-12-01T00:01:37.793Z,20.4
2022-12-01T00:02:42.235Z,20.4
2022-12-01T00:03:46.957Z,20.36
2022-12-01T00:04:51.221Z,20.35
2022-12-01T00:05:55.485Z,20.38
2022-12-01T00:06:59.748Z,20.36
2022-12-01T00:08:03.936Z,20.39
2022-12-01T00:09:08.449Z,20.35
2022-12-01T00:10:16.303Z,20.38
2022-12-01T00:11:20.583Z,20.34
2022-12-01T00:12:24.814Z,20.35
2022-12-01T00:13:29.006Z,20.32
2022-12-01T00:14:33.229Z,20.35
2022-12-01T00:15:37.460Z,20.32
2022-12-01T00:16:41.747Z,20.35
2022-12-01T00:17:46.216Z,20.35
2022-12-01T00:18:50.415Z,20.31
2022-12-01T00:19:54.568Z,20.3
2022-12-01T00:20:58.761Z,20.32
2022-12-01T00:22:02.930Z,20.29
2022-12-01T00:23:07.162Z,20.31
2022-12-01T00:24:11.398Z,20.3
2022-12-01T00:25:15.515Z,20.32
2022-12-01T00:26:19.932Z,20.32
2022-12-01T00:27:24.146Z,20.32
2022-12-01T00:28:28.399Z,20.29
2022-12-01T00:29:32.594Z,20.3
2022-12-01T00:30:36.824Z,20.32
2022-12-01T00:31:41.021Z,20.29
2022-12-01T00:32:45.578Z,20.31
2022-12-01T00:33:49.787Z,20.27
2022-12-01T00:34:53.952Z,20.3
2022-12-01T00:35:58.352Z,20.27
2022-12-01T00:37:02.572Z,20.3
2022-12-01T00:38:06.672Z,20.3
2022-12-01T00:39:10.867Z,20.29
2022-12-01T00:40:14.979Z,20.27
2022-12-01T00:41:19.163Z,20.29
2022-12-01T00:42:23.441Z,20.26
2022-12-01T00:43:27.615Z,20.29
2022-12-01T00:44:31.767Z,20.28
2022-12-01T00:45:36.008Z,20.26
2022-12-01T00:46:40.609Z,20.28
2022-12-01T00:47:44.851Z,20.26
2022-12-01T00:48:49.070Z,20.28
2022-12-01T00:49:53.260Z,20.27
2022-12-01T00:50:57.449Z,20.24
2022-12-01T00:52:01.701Z,20.26
2022-12-01T00:53:05.936Z,20.22
2022-12-01T00:54:10.191Z,20.25
2022-12-01T00:55:14.422Z,20.23
2022-12-01T00:56:18.657Z,20.26
2022-12-01T00:57:22.962Z,20.26
2022-12-01T00:58:27.200Z,20.26
2022-12-01T00:59:31.386Z,20.25
2022-12-01T01:00:35.699Z,20.25
2022-12-01T01:01:40.080Z,20.22
2022-12-01T01:02:44.582Z,20.24
2022-12-01T01:03:49.082Z,20.24
2022-12-01T01:04:53.275Z,20.23
2022-12-01T01:05:57.447Z,20.24
2022-12-01T01:07:01.659Z,20.22
2022-12-01T01:08:05.970Z,20.26
2022-12-01T01:09:10.479Z,20.28
2022-12-01T01:10:14.666Z,20.3
2022-12-01T01:11:18.889Z,20.32
2022-12-01T01:12:23.106Z,20.35
2022-12-01T01:13:27.315Z,20.4
2022-12-01T01:14:31.551Z,20.45
2022-12-01T01:15:35.801Z,20.46
2022-12-01T01:16:40.118Z,20.53
2022-12-01T01:17:44.490Z,20.56
2022-12-01T01:18:48.676Z,20.58
2022-12-01T01:19:52.862Z,20.66
2022-12-01T01:20:57.052Z,20.69
2022-12-01T01:22:01.329Z,20.72
2022-12-01T01:23:05.544Z,20.72
2022-12-01T01:24:09.887Z,20.79
2022-12-01T01:25:14.043Z,20.8
2022-12-01T01:26:18.295Z,20.83
2022-12-01T01:27:22.531Z,20.85
2022-12-01T01:28:26.751Z,20.91
2022-12-01T01:29:30.929Z,20.93
2022-12-01T01:30:35.187Z,20.94
2022-12-01T01:31:39.578Z,20.98
2022-12-01T01:32:43.759Z,20.96
2022-12-01T01:33:48.002Z,21.04
2022-12-01T01:34:52.277Z,21.08
2022-12-01T01:35:56.447Z,21.12
2022-12-01T01:37:00.653Z,21.14
2022-12-01T01:38:04.809Z,21.14
2022-12-01T01:39:09.045Z,21.15
2022-12-01T01:40:13.250Z,21.17
2022-12-01T01:41:17.463Z,21.13
2022-12-01T01:42:21.661Z,21.13
2022-12-01T01:43:25.896Z,21.12
2022-12-01T01:44:30.126Z,21.08
2022-12-01T01:45:34.355Z,21.07
2022-12-01T01:46:38.778Z,21.13
2022-12-01T01:47:42.907Z,21.11
2022-12-01T01:48:47.042Z,21.13
2022-12-01T01:49:51.400Z,21.06
2022-12-01T01:50:55.698Z,21.05
2022-12-01T01:51:59.897Z,21.09
2022-12-01T01:53:04.118Z,21.06
2022-12-01T01:54:08.416Z,21.02
2022-12-01T01:55:12.681Z,21.02
2022-12-01T01:56:16.861Z,21.07
2022-12-01T01:57:21.142Z,21.02
2022-12-01T01:58:25.366Z,21.1
2022-12-01T01:59:29.678Z,21.12
2022-12-01T02:00:33.918Z,21.14
2022-12-01T02:01:38.205Z,21.14
2022-12-01T02:02:42.791Z,21.19
2022-12-01T02:03:47.436Z,21.23
2022-12-01T02:04:51.627Z,21.22
2022-12-01T02:05:57.474Z,21.26
2022-12-01T02:07:08.247Z,21.29
2022-12-01T02:08:12.550Z,21.27
2022-12-01T02:09:16.857Z,21.31
2022-12-01T02:10:21.040Z,21.29
2022-12-01T02:11:25.257Z,21.32
2022-12-01T02:12:29.467Z,21.3
2022-12-01T02:13:33.608Z,21.31
2022-12-01T02:14:37.708Z,21.32
2022-12-01T02:15:41.802Z,21.31
2022-12-01T02:16:45.958Z,21.28
2022-12-01T02:17:50.312Z,21.24
2022-12-01T02:18:54.471Z,21.23
2022-12-01T02:19:58.585Z,21.2
2022-12-01T02:21:02.711Z,21.19
2022-12-01T02:22:06.824Z,21.17
2022-12-01T02:23:10.949Z,21.21
2022-12-01T02:24:15.046Z,21.23
2022-12-01T02:25:19.133Z,21.24
2022-12-01T02:26:23.252Z,21.22
2022-12-01T02:27:27.369Z,21.25
2022-12-01T02:28:31.469Z,21.25
2022-12-01T02:29:35.588Z,21.28
2022-12-01T02:30:39.740Z,21.29
2022-12-01T02:31:44.011Z,21.34
2022-12-01T02:32:48.113Z,21.38
2022-12-01T02:33:52.221Z,21.43
2022-12-01T02:34:56.316Z,21.46
2022-12-01T02:36:00.455Z,21.44
2022-12-01T02:37:04.686Z,21.46
2022-12-01T02:38:08.816Z,21.44
2022-12-01T02:39:12.932Z,21.42
2022-12-01T02:40:17.044Z,21.42
2022-12-01T02:41:21.136Z,21.3
2022-12-01T02:42:25.223Z,21.35
2022-12-01T02:43:29.324Z,21.37
2022-12-01T02:44:33.429Z,21.36
2022-12-01T02:45:37.518Z,21.33
2022-12-01T02:46:41.771Z,21.35
2022-12-01T02:47:45.862Z,21.34
2022-12-01T02:48:50.007Z,21.31
2022-12-01T02:49:54.121Z,21.29
2022-12-01T02:50:58.215Z,21.29
2022-12-01T02:52:02.531Z,21.3
2022-12-01T02:53:06.642Z,21.33
2022-12-01T02:54:10.745Z,21.34
2022-12-01T02:55:14.869Z,21.33
2022-12-01T02:56:18.970Z,21.35
2022-12-01T02:57:23.069Z,21.32
2022-12-01T02:58:27.193Z,21.32
2022-12-01T02:59:31.300Z,21.36
2022-12-01T03:00:35.403Z,21.35
2022-12-01T03:01:39.542Z,21.35
2022-12-01T03:02:43.945Z,21.32
2022-12-01T03:03:48.307Z,21.32
2022-12-01T03:04:52.430Z,20.94
2022-12-01T03:05:56.535Z,21.31
2022-12-01T03:07:00.630Z,21.32
2022-12-01T03:08:04.753Z,21.36
2022-12-01T03:09:09.213Z,21.38
2022-12-01T03:10:13.321Z,21.39
2022-12-01T03:11:17.424Z,21.42
2022-12-01T03:12:21.527Z,21.42
2022-12-01T03:13:25.615Z,21.43
2022-12-01T03:14:29.721Z,21.46
2022-12-01T03:15:33.948Z,21.5
2022-12-01T03:16:38.359Z,21.53
2022-12-01T03:17:42.472Z,21.53
2022-12-01T03:18:46.571Z,21.55
2022-12-01T03:19:51.038Z,21.57
2022-12-01T03:20:55.329Z,21.56
2022-12-01T03:21:59.429Z,21.57
2022-12-01T03:23:03.525Z,21.55
2022-12-01T03:24:07.618Z,21.51
2022-12-01T03:25:11.713Z,21.5
2022-12-01T03:26:15.825Z,21.53
2022-12-01T03:27:19.928Z,21.5
2022-12-01T03:28:24.028Z,21.49
2022-12-01T03:29:28.133Z,21.45
2022-12-01T03:30:32.244Z,21.44
2022-12-01T03:31:36.420Z,21.46
2022-12-01T03:32:40.707Z,21.46
2022-12-01T03:33:44.811Z,21.44
2022-12-01T03:34:48.920Z,21.46
2022-12-01T03:35:53.050Z,21.46
2022-12-01T03:36:57.159Z,21.45
2022-12-01T03:38:01.264Z,21.48
2022-12-01T03:39:05.371Z,21.52
2022-12-01T03:40:09.461Z,21.55
2022-12-01T03:41:13.560Z,21.55
2022-12-01T03:42:17.648Z,21.59
2022-12-01T03:43:21.759Z,21.63
2022-12-01T03:44:25.950Z,21.62
2022-12-01T03:45:30.042Z,21.67
2022-12-01T03:46:34.210Z,21.65
2022-12-01T03:47:38.510Z,21.68
2022-12-01T03:48:42.724Z,21.68
2022-12-01T03:49:47.166Z,21.69
2022-12-01T03:50:52.346Z,21.69
2022-12-01T03:51:56.442Z,21.73
2022-12-01T03:53:00.547Z,21.77
2022-12-01T03:54:04.647Z,21.83
2022-12-01T03:55:08.750Z,21.82
2022-12-01T03:56:12.866Z,21.87
2022-12-01T03:57:16.945Z,21.91
2022-12-01T03:58:21.073Z,21.91
2022-12-01T03:59:25.158Z,21.96
2022-12-01T04:00:29.261Z,21.92
2022-12-01T04:01:33.403Z,21.94
2022-12-01T04:02:37.737Z,22
2022-12-01T04:03:42.098Z,22
2022-12-01T04:04:46.181Z,22.08
2022-12-01T04:05:50.275Z,22.07
2022-12-01T04:06:54.389Z,22.1
2022-12-01T04:07:58.527Z,22.08
2022-12-01T04:09:03.049Z,22.11
2022-12-01T04:10:07.165Z,22.1
2022-12-01T04:11:11.265Z,22.06
2022-12-01T04:12:15.392Z,22.08
2022-12-01T04:13:19.483Z,22.05
2022-12-01T04:14:23.588Z,22.04
2022-12-01T04:15:27.697Z,22.04
2022-12-01T04:16:31.824Z,21.99
2022-12-01T04:17:36.135Z,21.97
2022-12-01T04:18:40.230Z,21.97
2022-12-01T04:19:44.330Z,21.93
2022-12-01T04:20:48.862Z,21.88
2022-12-01T04:21:52.963Z,21.86
2022-12-01T04:22:57.080Z,21.84
2022-12-01T04:24:01.258Z,21.84
2022-12-01T04:25:05.404Z,21.84
2022-12-01T04:26:14.303Z,21.8
2022-12-01T04:27:19.685Z,21.82
2022-12-01T04:28:23.793Z,21.81
2022-12-01T04:29:27.914Z,21.76
2022-12-01T04:30:32.013Z,21.77
2022-12-01T04:31:36.279Z,21.74
2022-12-01T04:32:40.656Z,21.73
2022-12-01T04:33:44.759Z,21.73
2022-12-01T04:34:48.836Z,21.7
2022-12-01T04:35:52.920Z,21.7
2022-12-01T04:36:57.024Z,21.68
2022-12-01T04:38:01.137Z,21.67
2022-12-01T04:39:05.253Z,21.67
2022-12-01T04:40:09.352Z,21.64
2022-12-01T04:41:13.455Z,21.64
2022-12-01T04:42:17.555Z,21.62
2022-12-01T04:43:21.669Z,21.61
2022-12-01T04:44:28.926Z,21.59
2022-12-01T04:45:38.388Z,21.58
2022-12-01T04:46:42.551Z,21.56
2022-12-01T04:47:46.842Z,21.55
2022-12-01T04:48:50.946Z,21.54
2022-12-01T04:49:55.066Z,21.52
2022-12-01T04:50:59.177Z,21.51
2022-12-01T04:52:03.393Z,21.5
2022-12-01T04:53:07.520Z,21.49
2022-12-01T04:54:11.682Z,21.48
2022-12-01T04:55:15.798Z,21.47
2022-12-01T04:56:19.902Z,21.27
2022-12-01T04:57:24.005Z,21.43
2022-12-01T04:58:28.107Z,21.46
2022-12-01T04:59:32.196Z,21.45
2022-12-01T05:00:36.314Z,21.41
2022-12-01T05:01:40.793Z,21.43
2022-12-01T05:02:45.023Z,21.42
2022-12-01T05:03:49.134Z,21.41
2022-12-01T05:04:53.243Z,21.39
2022-12-01T05:05:57.368Z,21.38
2022-12-01T05:07:01.492Z,21.37
2022-12-01T05:08:05.675Z,21.36
2022-12-01T05:09:13.205Z,21.36
2022-12-01T05:10:21.080Z,21.37
2022-12-01T05:11:25.192Z,21.37
2022-12-01T05:12:29.304Z,21.33
2022-12-01T05:13:33.417Z,21.36
2022-12-01T05:14:37.517Z,21.34
2022-12-01T05:15:41.646Z,21.33
2022-12-01T05:16:45.820Z,21.3
2022-12-01T05:17:50.237Z,21.31
2022-12-01T05:18:54.351Z,21.3
2022-12-01T05:19:58.658Z,21.3
2022-12-01T05:21:02.763Z,21.29
2022-12-01T05:22:06.881Z,21.26
2022-12-01T05:23:16.460Z,21.17
2022-12-01T05:24:20.835Z,21.28
2022-12-01T05:25:24.943Z,21.27
2022-12-01T05:26:29.028Z,21.25
2022-12-01T05:27:33.134Z,21.25
2022-12-01T05:28:37.235Z,21.28
2022-12-01T05:29:41.346Z,21.25
2022-12-01T05:30:45.439Z,21.28
2022-12-01T05:31:49.571Z,21.28
2022-12-01T05:32:53.924Z,21.28
2022-12-01T05:33:58.032Z,21.26
2022-12-01T05:35:02.137Z,21.29
2022-12-01T05:36:06.244Z,21.29
2022-12-01T05:37:10.358Z,21.29
2022-12-01T05:38:14.486Z,21.27
2022-12-01T05:39:18.577Z,21.29
2022-12-01T05:40:22.743Z,21.26
2022-12-01T05:41:26.848Z,21.28
2022-12-01T05:42:30.951Z,21.28
2022-12-01T05:43:35.057Z,21.27
2022-12-01T05:44:39.173Z,21.27
2022-12-01T05:45:43.334Z,21.27
2022-12-01T05:46:47.560Z,21.26
2022-12-01T05:47:51.679Z,21.25
2022-12-01T05:48:55.784Z,21.24
2022-12-01T05:50:05.081Z,21.22
2022-12-01T05:51:09.636Z,21.22
2022-12-01T05:52:13.728Z,21.23
2022-12-01T05:53:17.887Z,21.2
2022-12-01T05:54:21.982Z,21.19
2022-12-01T05:55:26.084Z,21.18
2022-12-01T05:56:30.189Z,21.17
2022-12-01T05:57:34.298Z,21.17
2022-12-01T05:58:38.375Z,21.16
2022-12-01T05:59:42.489Z,21.15
2022-12-01T06:00:46.614Z,21.18
2022-12-01T06:01:50.807Z,21.17
2022-12-01T06:02:55.067Z,21.17
2022-12-01T06:03:59.232Z,21.15
2022-12-01T06:05:03.638Z,21.14
2022-12-01T06:06:07.743Z,21.14
2022-12-01T06:07:11.872Z,21.14
2022-12-01T06:08:15.972Z,21.14
2022-12-01T06:09:20.080Z,21.14
2022-12-01T06:10:24.209Z,21.13
2022-12-01T06:11:28.313Z,21.1
2022-12-01T06:12:32.397Z,21.12
2022-12-01T06:13:36.513Z,21.12
2022-12-01T06:14:40.628Z,21.11
2022-12-01T06:15:44.822Z,21.11
2022-12-01T06:16:48.960Z,21.1
2022-12-01T06:17:53.309Z,21.1
2022-12-01T06:18:57.429Z,21.1
2022-12-01T06:20:01.547Z,21.06
2022-12-01T06:21:05.651Z,21.08
2022-12-01T06:22:09.768Z,21.07
2022-12-01T06:23:13.878Z,21.05
2022-12-01T06:24:17.996Z,21.07
2022-12-01T06:25:22.099Z,21.07
2022-12-01T06:26:26.253Z,21.03
2022-12-01T06:27:30.364Z,21.06
2022-12-01T06:28:34.484Z,21.02
2022-12-01T06:29:42.035Z,21.03
2022-12-01T06:30:46.338Z,21.03
2022-12-01T06:31:50.516Z,21.02
2022-12-01T06:32:54.811Z,21.02
2022-12-01T06:33:58.941Z,21
2022-12-01T06:35:03.049Z,21.02
2022-12-01T06:36:07.194Z,20.99
2022-12-01T06:37:11.355Z,21.02
2022-12-01T06:38:15.453Z,21
2022-12-01T06:39:19.577Z,20.98
2022-12-01T06:40:23.673Z,21
2022-12-01T06:41:27.860Z,21
2022-12-01T06:42:31.998Z,21
2022-12-01T06:43:36.091Z,20.99
2022-12-01T06:44:40.194Z,20.99
2022-12-01T06:45:44.360Z,20.98
2022-12-01T06:46:48.812Z,20.97
2022-12-01T06:47:52.928Z,20.97
2022-12-01T06:48:57.025Z,20.96
2022-12-01T06:50:01.125Z,20.96
2022-12-01T06:51:05.223Z,20.95
2022-12-01T06:52:09.298Z,20.91
2022-12-01T06:53:13.399Z,20.92
2022-12-01T06:54:17.524Z,20.92
2022-12-01T06:55:21.647Z,20.89
2022-12-01T06:56:26.256Z,20.92
2022-12-01T06:57:31.044Z,20.91
2022-12-01T06:58:35.861Z,20.88
2022-12-01T06:59:41.252Z,20.9
2022-12-01T07:00:50.541Z,20.87
2022-12-01T07:01:56.397Z,20.88
2022-12-01T07:03:01.083Z,20.88
2022-12-01T07:04:05.222Z,20.86
2022-12-01T07:05:09.323Z,20.86
2022-12-01T07:06:13.447Z,20.85
2022-12-01T07:07:17.523Z,20.84
2022-12-01T07:08:21.833Z,20.83
2022-12-01T07:09:25.996Z,20.82
2022-12-01T07:10:30.138Z,20.85
2022-12-01T07:11:34.222Z,20.82
2022-12-01T07:12:38.343Z,20.82
2022-12-01T07:13:42.437Z,20.8
2022-12-01T07:14:46.560Z,20.8
2022-12-01T07:15:50.648Z,20.79
2022-12-01T07:16:54.831Z,20.79
2022-12-01T07:17:59.217Z,20.78
2022-12-01T07:19:03.332Z,20.77
2022-12-01T07:20:07.482Z,20.77
2022-12-01T07:21:11.577Z,20.77
2022-12-01T07:22:15.665Z,20.77
2022-12-01T07:23:19.763Z,20.77
2022-12-01T07:24:23.954Z,20.78
2022-12-01T07:25:28.054Z,20.77
2022-12-01T07:26:32.171Z,20.74
2022-12-01T07:27:36.300Z,20.77
2022-12-01T07:28:40.447Z,20.73
2022-12-01T07:29:44.548Z,20.75
2022-12-01T07:30:49.168Z,20.75
2022-12-01T07:31:53.527Z,20.75
2022-12-01T07:32:57.619Z,20.7
2022-12-01T07:34:01.873Z,20.73
2022-12-01T07:35:06.039Z,20.7
2022-12-01T07:36:10.310Z,20.7
2022-12-01T07:37:14.481Z,20.7
2022-12-01T07:38:22.010Z,20.73
2022-12-01T07:39:26.384Z,20.72
2022-12-01T07:40:30.509Z,20.7
2022-12-01T07:41:34.768Z,20.73
2022-12-01T07:42:38.900Z,20.7
2022-12-01T07:43:42.993Z,20.73
2022-12-01T07:44:47.084Z,20.7
2022-12-01T07:45:51.240Z,20.72
2022-12-01T07:46:55.472Z,20.72
2022-12-01T07:47:59.566Z,20.7
2022-12-01T07:49:03.681Z,20.71
2022-12-01T07:50:07.807Z,20.73
2022-12-01T07:51:12.020Z,20.71
2022-12-01T07:52:16.137Z,20.7
2022-12-01T07:53:20.224Z,20.67
2022-12-01T07:54:24.371Z,20.7
2022-12-01T07:55:28.508Z,20.71
2022-12-01T07:56:32.612Z,20.69
2022-12-01T07:57:36.811Z,20.69
2022-12-01T07:58:40.956Z,20.69
2022-12-01T07:59:45.089Z,20.65
2022-12-01T08:00:49.836Z,20.69
2022-12-01T08:01:54.022Z,20.69
2022-12-01T08:02:58.384Z,20.65
2022-12-01T08:04:02.759Z,20.68
2022-12-01T08:05:06.883Z,20.63
2022-12-01T08:06:11.006Z,20.65
2022-12-01T08:07:15.139Z,20.65
2022-12-01T08:08:19.323Z,20.6
2022-12-01T08:09:23.591Z,20.65
2022-12-01T08:10:27.748Z,20.65
2022-12-01T08:11:31.879Z,20.61
2022-12-01T08:12:36.096Z,20.64
2022-12-01T08:13:40.203Z,20.64
2022-12-01T08:14:44.305Z,20.62
2022-12-01T08:15:48.455Z,20.59
2022-12-01T08:16:52.727Z,20.6
2022-12-01T08:17:56.829Z,20.6
2022-12-01T08:19:00.969Z,20.58
2022-12-01T08:20:05.074Z,20.56
2022-12-01T08:21:09.156Z,20.59
2022-12-01T08:22:13.449Z,20.58
2022-12-01T08:23:17.606Z,20.57
2022-12-01T08:24:21.950Z,20.58
2022-12-01T08:25:26.051Z,20.6
2022-12-01T08:26:30.129Z,20.6
2022-12-01T08:27:34.256Z,20.59
